Forside
METAR-TAF:

METAR-TAF

Lufthavne :

Moline, Illinois, USA

Breddekreds: 41-27-05N, længdekreds: 090-30-53W, højde: 179 m

Aktuelle vejr

Denne rapport blev lavet for 1 time og 7 minutter siden, kl. 10:52 UTC
Vind 3 kt fra østsydøst
Temperatur 15°C
Fugtighed 94%
Tryk 1019 hPa
Sigt: 14.5 km
skyfri

METAR: KMLI 121052Z 12003KT 9SM CLR 15/14 A3009 RMK AO2 SLP185 T01500139 $

Tid: 06:59 (11:59 UTC)

Vejrudsigter

Denne rapport blev lavet for 39 minutter siden, kl. 11:20 UTC
Foreløbig gælder fra 12 på 12 UTC til 13 på 12 UTC
Vind 3 kt fra varierende retninger
Sigt: 10 km
skyfri
Fra 12 på 1700 UTC
Vind 7 kt fra østsydøst
Sigt: 10 km
Nogle få skyer i en højde af 4000 ft
Spredte skyer i en højde af 25000 ft
Fra 13 på 0300 UTC
Vind 4 kt fra øst
Sigt: 10 km
Nogle få skyer i en højde af 25000 ft

TAF: KMLI 121120Z 1212/1312 VRB03KT P6SM SKC FM121700 12007KT P6SM FEW040 SCT250 FM130300 09004KT P6SM FEW250

Vejrobservationer og prognoser fra mere end 4000 lufthavne (METAR og TAF).

De gule og røde prikker repræsenterer de meteorologiske stationer.

Flyt musen over at se navnet på stationen.

Så klik over at se vejr observationer og prognoser.

At skifte det kort: Klik på de grønne knapper med et sort kors for at zoome ind; på den grønne knap med en bindestreg for at zoome ud; eller på de grønne pile for tilstødende kort.


METAR-TAF: